sensor_id;sensor_type;location;lat;lon;timestamp;temperature;humidity
9776;DHT22;4927;52.472;13.108;2022-10-23T00:00:18;11.50;99.90
9776;DHT22;4927;52.472;13.108;2022-10-23T00:05:25;11.40;99.90
9776;DHT22;4927;52.472;13.108;2022-10-23T00:10:31;11.40;99.90
9776;DHT22;4927;52.472;13.108;2022-10-23T00:15:37;11.40;99.90
9776;DHT22;4927;52.472;13.108;2022-10-23T00:20:43;11.40;99.90
9776;DHT22;4927;52.472;13.108;2022-10-23T00:25:48;11.40;99.90
9776;DHT22;4927;52.472;13.108;2022-10-23T00:30:54;11.40;99.90
9776;DHT22;4927;52.472;13.108;2022-10-23T00:36:02;11.50;99.90
9776;DHT22;4927;52.472;13.108;2022-10-23T00:41:08;11.70;99.90
9776;DHT22;4927;52.472;13.108;2022-10-23T00:46:14;11.70;99.90
9776;DHT22;4927;52.472;13.108;2022-10-23T00:51:20;11.70;99.90
9776;DHT22;4927;52.472;13.108;2022-10-23T00:56:27;11.80;99.90
9776;DHT22;4927;52.472;13.108;2022-10-23T01:01:33;11.80;99.90
9776;DHT22;4927;52.472;13.108;2022-10-23T01:06:43;11.70;99.90
9776;DHT22;4927;52.472;13.108;2022-10-23T01:11:55;11.70;99.90
9776;DHT22;4927;52.472;13.108;2022-10-23T01:17:04;11.60;99.90
9776;DHT22;4927;52.472;13.108;2022-10-23T01:22:15;11.60;99.90
9776;DHT22;4927;52.472;13.108;2022-10-23T01:27:20;11.60;99.90
9776;DHT22;4927;52.472;13.108;2022-10-23T01:32:33;11.60;99.90
9776;DHT22;4927;52.472;13.108;2022-10-23T01:37:42;11.60;99.90
9776;DHT22;4927;52.472;13.108;2022-10-23T01:42:49;11.70;99.90
9776;DHT22;4927;52.472;13.108;2022-10-23T01:47:54;11.70;99.90
9776;DHT22;4927;52.472;13.108;2022-10-23T01:53:01;11.60;99.90
9776;DHT22;4927;52.472;13.108;2022-10-23T01:58:07;11.60;99.90
9776;DHT22;4927;52.472;13.108;2022-10-23T02:03:15;11.60;99.90
9776;DHT22;4927;52.472;13.108;2022-10-23T02:08:20;11.60;99.90
9776;DHT22;4927;52.472;13.108;2022-10-23T02:13:28;11.60;99.90
9776;DHT22;4927;52.472;13.108;2022-10-23T02:18:52;11.50;99.90
9776;DHT22;4927;52.472;13.108;2022-10-23T02:24:00;11.30;99.90
9776;DHT22;4927;52.472;13.108;2022-10-23T02:29:08;11.30;99.90
9776;DHT22;4927;52.472;13.108;2022-10-23T02:34:12;11.20;99.90
9776;DHT22;4927;52.472;13.108;2022-10-23T02:39:20;11.00;99.90
9776;DHT22;4927;52.472;13.108;2022-10-23T02:44:31;11.00;99.90
9776;DHT22;4927;52.472;13.108;2022-10-23T02:49:42;11.00;99.90
9776;DHT22;4927;52.472;13.108;2022-10-23T02:55:02;10.90;99.90
9776;DHT22;4927;52.472;13.108;2022-10-23T03:05:24;10.70;99.90
9776;DHT22;4927;52.472;13.108;2022-10-23T03:10:30;10.50;99.90
9776;DHT22;4927;52.472;13.108;2022-10-23T03:15:34;10.50;99.90
9776;DHT22;4927;52.472;13.108;2022-10-23T03:20:40;10.50;99.90
9776;DHT22;4927;52.472;13.108;2022-10-23T03:25:46;10.40;99.90
9776;DHT22;4927;52.472;13.108;2022-10-23T03:30:53;10.40;99.90
9776;DHT22;4927;52.472;13.108;2022-10-23T03:35:57;10.40;99.90
9776;DHT22;4927;52.472;13.108;2022-10-23T03:41:03;10.30;99.90
9776;DHT22;4927;52.472;13.108;2022-10-23T03:46:09;10.20;99.90
9776;DHT22;4927;52.472;13.108;2022-10-23T03:51:16;10.10;99.90
9776;DHT22;4927;52.472;13.108;2022-10-23T03:56:22;10.00;99.90
9776;DHT22;4927;52.472;13.108;2022-10-23T04:01:29;10.00;99.90
9776;DHT22;4927;52.472;13.108;2022-10-23T04:06:35;9.90;99.90
9776;DHT22;4927;52.472;13.108;2022-10-23T04:11:42;9.80;99.90
9776;DHT22;4927;52.472;13.108;2022-10-23T04:21:18;9.60;99.90
9776;DHT22;4927;52.472;13.108;2022-10-23T04:26:25;9.40;99.90
9776;DHT22;4927;52.472;13.108;2022-10-23T04:31:35;9.40;99.90
9776;DHT22;4927;52.472;13.108;2022-10-23T04:36:41;9.40;99.90
9776;DHT22;4927;52.472;13.108;2022-10-23T04:41:48;9.40;99.90
9776;DHT22;4927;52.472;13.108;2022-10-23T04:46:54;9.30;99.90
9776;DHT22;4927;52.472;13.108;2022-10-23T04:52:04;9.40;99.90
9776;DHT22;4927;52.472;13.108;2022-10-23T04:57:10;9.20;99.90
9776;DHT22;4927;52.472;13.108;2022-10-23T05:02:17;9.10;99.90
9776;DHT22;4927;52.472;13.108;2022-10-23T05:07:23;9.10;99.90
9776;DHT22;4927;52.472;13.108;2022-10-23T05:12:29;9.00;99.90
9776;DHT22;4927;52.472;13.108;2022-10-23T05:17:36;9.00;99.90
9776;DHT22;4927;52.472;13.108;2022-10-23T05:22:42;9.00;99.90
9776;DHT22;4927;52.472;13.108;2022-10-23T05:27:46;9.00;99.90
9776;DHT22;4927;52.472;13.108;2022-10-23T05:32:53;9.00;99.90
9776;DHT22;4927;52.472;13.108;2022-10-23T05:37:59;8.90;99.90
9776;DHT22;4927;52.472;13.108;2022-10-23T05:43:09;8.90;99.90
9776;DHT22;4927;52.472;13.108;2022-10-23T05:48:16;8.90;99.90
9776;DHT22;4927;52.472;13.108;2022-10-23T05:53:22;8.90;99.90
9776;DHT22;4927;52.472;13.108;2022-10-23T05:58:28;8.80;99.90
9776;DHT22;4927;52.472;13.108;2022-10-23T06:03:33;8.80;99.90
9776;DHT22;4927;52.472;13.108;2022-10-23T06:08:40;8.70;99.90
9776;DHT22;4927;52.472;13.108;2022-10-23T06:13:46;8.70;99.90
9776;DHT22;4927;52.472;13.108;2022-10-23T06:18:54;8.60;99.90
9776;DHT22;4927;52.472;13.108;2022-10-23T06:24:00;8.70;99.90
9776;DHT22;4927;52.472;13.108;2022-10-23T06:29:06;8.60;99.90
9776;DHT22;4927;52.472;13.108;2022-10-23T06:34:12;8.70;99.90
9776;DHT22;4927;52.472;13.108;2022-10-23T06:39:19;8.70;99.90
9776;DHT22;4927;52.472;13.108;2022-10-23T06:44:26;9.00;99.90
9776;DHT22;4927;52.472;13.108;2022-10-23T06:49:32;8.90;99.90
9776;DHT22;4927;52.472;13.108;2022-10-23T06:54:39;9.10;99.90
9776;DHT22;4927;52.472;13.108;2022-10-23T06:59:45;9.20;99.90
9776;DHT22;4927;52.472;13.108;2022-10-23T07:04:56;9.40;99.90
9776;DHT22;4927;52.472;13.108;2022-10-23T07:10:03;9.40;99.90
9776;DHT22;4927;52.472;13.108;2022-10-23T07:15:09;9.60;99.90
9776;DHT22;4927;52.472;13.108;2022-10-23T07:20:16;9.70;99.90
9776;DHT22;4927;52.472;13.108;2022-10-23T07:25:21;9.90;99.90
9776;DHT22;4927;52.472;13.108;2022-10-23T07:30:24;10.10;99.90
9776;DHT22;4927;52.472;13.108;2022-10-23T07:35:31;10.40;99.90
9776;DHT22;4927;52.472;13.108;2022-10-23T07:40:35;10.60;99.90
9776;DHT22;4927;52.472;13.108;2022-10-23T07:45:41;10.90;99.90
9776;DHT22;4927;52.472;13.108;2022-10-23T07:50:48;11.10;99.90
9776;DHT22;4927;52.472;13.108;2022-10-23T07:55:57;11.30;99.90
9776;DHT22;4927;52.472;13.108;2022-10-23T08:01:02;11.50;99.90
9776;DHT22;4927;52.472;13.108;2022-10-23T08:06:08;11.70;99.90
9776;DHT22;4927;52.472;13.108;2022-10-23T08:11:15;11.80;99.90
9776;DHT22;4927;52.472;13.108;2022-10-23T08:16:22;11.90;99.90
9776;DHT22;4927;52.472;13.108;2022-10-23T08:21:32;12.10;99.90
9776;DHT22;4927;52.472;13.108;2022-10-23T08:26:39;12.10;99.90
9776;DHT22;4927;52.472;13.108;2022-10-23T08:31:46;12.40;99.90
9776;DHT22;4927;52.472;13.108;2022-10-23T08:36:57;12.40;99.90
9776;DHT22;4927;52.472;13.108;2022-10-23T08:42:03;12.40;99.90
9776;DHT22;4927;52.472;13.108;2022-10-23T08:47:11;12.50;99.90
9776;DHT22;4927;52.472;13.108;2022-10-23T08:52:23;12.60;99.90
9776;DHT22;4927;52.472;13.108;2022-10-23T08:57:28;12.70;99.90
9776;DHT22;4927;52.472;13.108;2022-10-23T09:02:35;12.80;99.90
9776;DHT22;4927;52.472;13.108;2022-10-23T09:07:48;12.90;99.90
9776;DHT22;4927;52.472;13.108;2022-10-23T09:12:49;13.10;99.90
9776;DHT22;4927;52.472;13.108;2022-10-23T09:17:59;13.20;99.90
9776;DHT22;4927;52.472;13.108;2022-10-23T09:23:06;13.30;99.90
9776;DHT22;4927;52.472;13.108;2022-10-23T09:33:32;13.70;99.90
9776;DHT22;4927;52.472;13.108;2022-10-23T09:38:38;13.80;99.90
9776;DHT22;4927;52.472;13.108;2022-10-23T09:43:43;14.00;99.90
9776;DHT22;4927;52.472;13.108;2022-10-23T09:48:56;14.20;99.90
9776;DHT22;4927;52.472;13.108;2022-10-23T09:53:56;14.30;99.90
9776;DHT22;4927;52.472;13.108;2022-10-23T09:59:15;14.40;99.90
9776;DHT22;4927;52.472;13.108;2022-10-23T10:04:09;14.50;99.90
9776;DHT22;4927;52.472;13.108;2022-10-23T10:09:14;14.60;99.90
9776;DHT22;4927;52.472;13.108;2022-10-23T10:14:39;14.80;99.90
9776;DHT22;4927;52.472;13.108;2022-10-23T10:20:01;15.00;99.90
9776;DHT22;4927;52.472;13.108;2022-10-23T10:25:08;15.20;99.90
9776;DHT22;4927;52.472;13.108;2022-10-23T10:30:14;15.50;99.90
9776;DHT22;4927;52.472;13.108;2022-10-23T10:35:22;15.70;99.90
9776;DHT22;4927;52.472;13.108;2022-10-23T10:40:32;16.20;99.90
9776;DHT22;4927;52.472;13.108;2022-10-23T10:45:46;16.60;99.90
9776;DHT22;4927;52.472;13.108;2022-10-23T10:50:56;16.90;99.90
9776;DHT22;4927;52.472;13.108;2022-10-23T10:56:01;16.90;99.90
9776;DHT22;4927;52.472;13.108;2022-10-23T11:01:16;17.50;99.90
9776;DHT22;4927;52.472;13.108;2022-10-23T11:06:19;17.50;99.90
9776;DHT22;4927;52.472;13.108;2022-10-23T11:11:26;17.50;99.90
9776;DHT22;4927;52.472;13.108;2022-10-23T11:16:33;17.70;99.90
9776;DHT22;4927;52.472;13.108;2022-10-23T11:21:52;17.90;99.90
9776;DHT22;4927;52.472;13.108;2022-10-23T11:32:39;18.40;99.90
9776;DHT22;4927;52.472;13.108;2022-10-23T11:37:40;18.40;99.90
9776;DHT22;4927;52.472;13.108;2022-10-23T11:42:47;18.30;99.90
9776;DHT22;4927;52.472;13.108;2022-10-23T11:48:05;18.40;99.90
9776;DHT22;4927;52.472;13.108;2022-10-23T11:53:37;18.50;99.90
9776;DHT22;4927;52.472;13.108;2022-10-23T11:58:43;18.60;99.90
9776;DHT22;4927;52.472;13.108;2022-10-23T12:03:53;19.00;99.90
9776;DHT22;4927;52.472;13.108;2022-10-23T12:08:59;18.90;99.90
9776;DHT22;4927;52.472;13.108;2022-10-23T12:14:04;19.00;99.90
9776;DHT22;4927;52.472;13.108;2022-10-23T12:19:16;18.90;99.90
9776;DHT22;4927;52.472;13.108;2022-10-23T12:24:25;18.80;99.90
9776;DHT22;4927;52.472;13.108;2022-10-23T12:29:36;18.80;99.90
9776;DHT22;4927;52.472;13.108;2022-10-23T12:40:00;18.50;99.90
9776;DHT22;4927;52.472;13.108;2022-10-23T12:45:23;18.50;99.90
9776;DHT22;4927;52.472;13.108;2022-10-23T12:50:29;18.50;99.90
9776;DHT22;4927;52.472;13.108;2022-10-23T12:55:50;18.60;99.90
9776;DHT22;4927;52.472;13.108;2022-10-23T13:00:54;18.60;99.90
9776;DHT22;4927;52.472;13.108;2022-10-23T13:06:00;18.40;99.90
9776;DHT22;4927;52.472;13.108;2022-10-23T13:11:11;18.50;99.90
9776;DHT22;4927;52.472;13.108;2022-10-23T13:16:16;18.30;99.90
9776;DHT22;4927;52.472;13.108;2022-10-23T13:21:23;18.40;99.90
9776;DHT22;4927;52.472;13.108;2022-10-23T13:26:36;18.40;99.90
9776;DHT22;4927;52.472;13.108;2022-10-23T13:31:40;18.40;99.90
9776;DHT22;4927;52.472;13.108;2022-10-23T13:36:49;18.40;99.90
9776;DHT22;4927;52.472;13.108;2022-10-23T13:41:52;18.40;99.90
9776;DHT22;4927;52.472;13.108;2022-10-23T13:46:58;18.40;99.90
9776;DHT22;4927;52.472;13.108;2022-10-23T13:52:07;18.30;99.90
9776;DHT22;4927;52.472;13.108;2022-10-23T13:57:11;18.30;99.90
9776;DHT22;4927;52.472;13.108;2022-10-23T14:02:18;18.10;99.90
9776;DHT22;4927;52.472;13.108;2022-10-23T14:07:23;18.00;99.90
9776;DHT22;4927;52.472;13.108;2022-10-23T14:12:30;17.90;99.90
9776;DHT22;4927;52.472;13.108;2022-10-23T14:17:36;17.80;99.90
9776;DHT22;4927;52.472;13.108;2022-10-23T14:22:42;17.80;99.90
9776;DHT22;4927;52.472;13.108;2022-10-23T14:27:49;17.70;99.90
9776;DHT22;4927;52.472;13.108;2022-10-23T14:32:55;17.70;99.90
9776;DHT22;4927;52.472;13.108;2022-10-23T14:38:02;17.50;99.90
9776;DHT22;4927;52.472;13.108;2022-10-23T14:43:09;17.50;99.90
9776;DHT22;4927;52.472;13.108;2022-10-23T14:48:15;17.50;99.90
9776;DHT22;4927;52.472;13.108;2022-10-23T14:53:21;17.30;99.90
9776;DHT22;4927;52.472;13.108;2022-10-23T14:58:27;17.20;99.90
9776;DHT22;4927;52.472;13.108;2022-10-23T15:03:34;17.10;99.90
9776;DHT22;4927;52.472;13.108;2022-10-23T15:08:40;17.00;99.90
9776;DHT22;4927;52.472;13.108;2022-10-23T15:13:46;16.90;99.90
9776;DHT22;4927;52.472;13.108;2022-10-23T15:18:54;16.70;99.90
9776;DHT22;4927;52.472;13.108;2022-10-23T15:24:01;16.60;99.90
9776;DHT22;4927;52.472;13.108;2022-10-23T15:29:05;16.50;99.90
9776;DHT22;4927;52.472;13.108;2022-10-23T15:34:15;16.40;99.90
9776;DHT22;4927;52.472;13.108;2022-10-23T15:39:21;16.30;99.90
9776;DHT22;4927;52.472;13.108;2022-10-23T15:44:27;16.10;99.90
9776;DHT22;4927;52.472;13.108;2022-10-23T15:49:33;16.00;99.90
9776;DHT22;4927;52.472;13.108;2022-10-23T15:54:37;15.90;99.90
9776;DHT22;4927;52.472;13.108;2022-10-23T15:59:43;15.90;99.90
9776;DHT22;4927;52.472;13.108;2022-10-23T16:04:50;15.80;99.90
9776;DHT22;4927;52.472;13.108;2022-10-23T16:09:56;15.80;99.90
9776;DHT22;4927;52.472;13.108;2022-10-23T16:15:03;15.80;99.90
9776;DHT22;4927;52.472;13.108;2022-10-23T16:20:10;15.60;99.90
9776;DHT22;4927;52.472;13.108;2022-10-23T16:25:17;15.50;99.90
9776;DHT22;4927;52.472;13.108;2022-10-23T16:30:23;15.50;99.90
9776;DHT22;4927;52.472;13.108;2022-10-23T16:35:29;15.50;99.90
9776;DHT22;4927;52.472;13.108;2022-10-23T16:40:35;15.50;99.90
9776;DHT22;4927;52.472;13.108;2022-10-23T16:45:42;15.30;99.90
9776;DHT22;4927;52.472;13.108;2022-10-23T16:50:46;15.30;99.90
9776;DHT22;4927;52.472;13.108;2022-10-23T16:55:54;15.30;99.90
9776;DHT22;4927;52.472;13.108;2022-10-23T17:01:02;15.30;99.90
9776;DHT22;4927;52.472;13.108;2022-10-23T17:06:08;15.30;99.90
9776;DHT22;4927;52.472;13.108;2022-10-23T17:11:15;15.30;99.90
9776;DHT22;4927;52.472;13.108;2022-10-23T17:16:22;15.30;99.90
9776;DHT22;4927;52.472;13.108;2022-10-23T17:21:30;15.30;99.90
9776;DHT22;4927;52.472;13.108;2022-10-23T17:26:34;15.30;99.90
9776;DHT22;4927;52.472;13.108;2022-10-23T17:31:42;15.30;99.90
9776;DHT22;4927;52.472;13.108;2022-10-23T17:36:48;15.30;99.90
9776;DHT22;4927;52.472;13.108;2022-10-23T17:41:54;15.30;99.90
9776;DHT22;4927;52.472;13.108;2022-10-23T17:47:00;15.20;99.90
9776;DHT22;4927;52.472;13.108;2022-10-23T17:52:06;15.20;99.90
9776;DHT22;4927;52.472;13.108;2022-10-23T17:57:12;15.20;99.90
9776;DHT22;4927;52.472;13.108;2022-10-23T18:02:19;15.10;99.90
9776;DHT22;4927;52.472;13.108;2022-10-23T18:07:25;15.20;99.90
9776;DHT22;4927;52.472;13.108;2022-10-23T18:12:31;15.10;99.90
9776;DHT22;4927;52.472;13.108;2022-10-23T18:17:38;15.00;99.90
9776;DHT22;4927;52.472;13.108;2022-10-23T18:22:44;15.00;99.90
9776;DHT22;4927;52.472;13.108;2022-10-23T18:27:52;14.90;99.90
9776;DHT22;4927;52.472;13.108;2022-10-23T18:33:06;14.90;99.90
9776;DHT22;4927;52.472;13.108;2022-10-23T18:38:13;14.80;99.90
9776;DHT22;4927;52.472;13.108;2022-10-23T18:43:20;14.80;99.90
9776;DHT22;4927;52.472;13.108;2022-10-23T18:48:27;14.70;99.90
9776;DHT22;4927;52.472;13.108;2022-10-23T18:53:33;14.70;99.90
9776;DHT22;4927;52.472;13.108;2022-10-23T18:58:39;14.70;99.90
9776;DHT22;4927;52.472;13.108;2022-10-23T19:03:44;14.70;99.90
9776;DHT22;4927;52.472;13.108;2022-10-23T19:08:50;14.60;99.90
9776;DHT22;4927;52.472;13.108;2022-10-23T19:13:57;14.50;99.90
9776;DHT22;4927;52.472;13.108;2022-10-23T19:19:09;14.50;99.90
9776;DHT22;4927;52.472;13.108;2022-10-23T19:24:13;14.40;99.90
9776;DHT22;4927;52.472;13.108;2022-10-23T19:29:19;14.40;99.90
9776;DHT22;4927;52.472;13.108;2022-10-23T19:34:24;14.40;99.90
9776;DHT22;4927;52.472;13.108;2022-10-23T19:39:30;14.40;99.90
9776;DHT22;4927;52.472;13.108;2022-10-23T19:44:36;14.40;99.90
9776;DHT22;4927;52.472;13.108;2022-10-23T19:49:42;14.30;99.90
9776;DHT22;4927;52.472;13.108;2022-10-23T19:54:49;14.30;99.90
9776;DHT22;4927;52.472;13.108;2022-10-23T19:59:55;14.30;99.90
9776;DHT22;4927;52.472;13.108;2022-10-23T20:05:03;14.20;99.90
9776;DHT22;4927;52.472;13.108;2022-10-23T20:10:09;14.20;99.90
9776;DHT22;4927;52.472;13.108;2022-10-23T20:15:16;14.20;99.90
9776;DHT22;4927;52.472;13.108;2022-10-23T20:20:22;14.20;99.90
9776;DHT22;4927;52.472;13.108;2022-10-23T20:25:28;14.20;99.90
9776;DHT22;4927;52.472;13.108;2022-10-23T20:30:39;14.10;99.90
9776;DHT22;4927;52.472;13.108;2022-10-23T20:35:44;14.00;99.90
9776;DHT22;4927;52.472;13.108;2022-10-23T20:40:50;14.00;99.90
9776;DHT22;4927;52.472;13.108;2022-10-23T20:45:56;13.90;99.90
9776;DHT22;4927;52.472;13.108;2022-10-23T20:51:04;13.80;99.90
9776;DHT22;4927;52.472;13.108;2022-10-23T20:56:12;13.70;99.90
9776;DHT22;4927;52.472;13.108;2022-10-23T21:01:17;13.70;99.90
9776;DHT22;4927;52.472;13.108;2022-10-23T21:06:24;13.60;99.90
9776;DHT22;4927;52.472;13.108;2022-10-23T21:11:31;13.60;99.90
9776;DHT22;4927;52.472;13.108;2022-10-23T21:16:37;13.50;99.90
9776;DHT22;4927;52.472;13.108;2022-10-23T21:21:43;13.40;99.90
9776;DHT22;4927;52.472;13.108;2022-10-23T21:26:49;13.40;99.90
9776;DHT22;4927;52.472;13.108;2022-10-23T21:31:57;13.50;99.90
9776;DHT22;4927;52.472;13.108;2022-10-23T21:37:03;13.50;99.90
9776;DHT22;4927;52.472;13.108;2022-10-23T21:42:10;13.50;99.90
9776;DHT22;4927;52.472;13.108;2022-10-23T21:47:15;13.50;99.90
9776;DHT22;4927;52.472;13.108;2022-10-23T21:52:22;13.50;99.90
9776;DHT22;4927;52.472;13.108;2022-10-23T21:57:29;13.50;99.90
9776;DHT22;4927;52.472;13.108;2022-10-23T22:02:36;13.60;99.90
9776;DHT22;4927;52.472;13.108;2022-10-23T22:07:45;13.60;99.90
9776;DHT22;4927;52.472;13.108;2022-10-23T22:12:50;13.50;99.90
9776;DHT22;4927;52.472;13.108;2022-10-23T22:17:57;13.50;99.90
9776;DHT22;4927;52.472;13.108;2022-10-23T22:23:03;13.50;99.90
9776;DHT22;4927;52.472;13.108;2022-10-23T22:28:09;13.40;99.90
9776;DHT22;4927;52.472;13.108;2022-10-23T22:33:16;13.40;99.90
9776;DHT22;4927;52.472;13.108;2022-10-23T22:38:22;13.40;99.90
9776;DHT22;4927;52.472;13.108;2022-10-23T22:43:29;13.40;99.90
9776;DHT22;4927;52.472;13.108;2022-10-23T22:48:35;13.40;99.90
9776;DHT22;4927;52.472;13.108;2022-10-23T22:53:41;13.40;99.90
9776;DHT22;4927;52.472;13.108;2022-10-23T22:58:48;13.40;99.90
9776;DHT22;4927;52.472;13.108;2022-10-23T23:03:54;13.30;99.90
9776;DHT22;4927;52.472;13.108;2022-10-23T23:09:01;13.30;99.90
9776;DHT22;4927;52.472;13.108;2022-10-23T23:14:07;13.30;99.90
9776;DHT22;4927;52.472;13.108;2022-10-23T23:19:13;13.30;99.90
9776;DHT22;4927;52.472;13.108;2022-10-23T23:24:19;13.30;99.90
9776;DHT22;4927;52.472;13.108;2022-10-23T23:29:25;13.40;99.90
9776;DHT22;4927;52.472;13.108;2022-10-23T23:34:30;13.30;99.90
9776;DHT22;4927;52.472;13.108;2022-10-23T23:39:36;13.30;99.90
9776;DHT22;4927;52.472;13.108;2022-10-23T23:44:43;13.30;99.90
9776;DHT22;4927;52.472;13.108;2022-10-23T23:49:48;13.30;99.90
9776;DHT22;4927;52.472;13.108;2022-10-23T23:54:54;13.30;99.90
